createdAt,value
2023-02-26T00:01:43.522Z,100.00
2023-02-26T00:04:11.158Z,100.00
2023-02-26T00:06:52.550Z,100.00
2023-02-26T00:09:21.312Z,100.00
2023-02-26T00:11:49.401Z,100.00
2023-02-26T00:14:17.685Z,100.00
2023-02-26T00:16:51.138Z,100.00
2023-02-26T00:19:20.133Z,100.00
2023-02-26T00:21:47.785Z,100.00
2023-02-26T00:24:15.062Z,100.00
2023-02-26T00:26:42.439Z,100.00
2023-02-26T00:29:09.977Z,100.00
2023-02-26T00:31:38.283Z,100.00
2023-02-26T00:34:05.850Z,100.00
2023-02-26T00:36:59.006Z,100.00
2023-02-26T00:39:32.323Z,100.00
2023-02-26T00:42:00.234Z,100.00
2023-02-26T00:44:27.869Z,100.00
2023-02-26T00:47:27.521Z,100.00
2023-02-26T00:50:16.140Z,100.00
2023-02-26T00:53:01.302Z,100.00
2023-02-26T00:55:29.594Z,100.00
2023-02-26T00:57:57.109Z,100.00
2023-02-26T01:00:24.942Z,100.00
2023-02-26T01:02:52.582Z,100.00
2023-02-26T01:05:22.991Z,100.00
2023-02-26T01:07:59.320Z,100.00
2023-02-26T01:10:27.017Z,100.00
2023-02-26T01:12:56.806Z,100.00
2023-02-26T01:15:25.094Z,100.00
2023-02-26T01:18:00.686Z,100.00
2023-02-26T01:20:35.654Z,100.00
2023-02-26T01:23:43.585Z,100.00
2023-02-26T01:26:20.210Z,100.00
2023-02-26T01:28:47.910Z,100.00
2023-02-26T01:31:30.480Z,100.00
2023-02-26T01:34:05.601Z,100.00
2023-02-26T01:36:40.950Z,100.00
2023-02-26T01:39:14.311Z,100.00
2023-02-26T01:41:50.759Z,100.00
2023-02-26T01:44:26.734Z,100.00
2023-02-26T01:47:41.433Z,100.00
2023-02-26T01:50:19.140Z,100.00
2023-02-26T01:52:49.297Z,100.00
2023-02-26T01:55:26.722Z,100.00
2023-02-26T01:57:57.594Z,100.00
2023-02-26T02:00:25.037Z,100.00
2023-02-26T02:02:54.238Z,100.00
2023-02-26T02:05:47.276Z,100.00
2023-02-26T02:08:15.576Z,100.00
2023-02-26T02:10:47.569Z,100.00
2023-02-26T02:13:20.222Z,100.00
2023-02-26T02:16:00.909Z,99.90
2023-02-26T02:18:49.790Z,99.01
2023-02-26T02:21:39.486Z,99.65
2023-02-26T02:24:18.344Z,97.49
2023-02-26T02:27:03.976Z,98.42
2023-02-26T02:29:43.381Z,93.34
2023-02-26T02:32:44.725Z,96.56
2023-02-26T02:35:24.275Z,95.96
2023-02-26T02:37:57.944Z,97.54
2023-02-26T02:40:29.848Z,96.51
2023-02-26T02:43:09.549Z,94.50
2023-02-26T02:45:40.176Z,96.12
2023-02-26T02:48:22.832Z,96.12
2023-02-26T02:50:54.691Z,94.03
2023-02-26T02:53:31.018Z,91.55
2023-02-26T02:56:10.090Z,90.25
2023-02-26T02:58:46.997Z,89.55
2023-02-26T03:01:18.427Z,87.84
2023-02-26T03:04:08.155Z,86.88
2023-02-26T03:06:37.994Z,86.61
2023-02-26T03:09:07.305Z,85.54
2023-02-26T03:11:35.256Z,85.25
2023-02-26T03:14:03.800Z,84.21
2023-02-26T03:16:37.610Z,82.68
2023-02-26T03:19:15.859Z,81.76
2023-02-26T03:22:01.647Z,80.94
2023-02-26T03:25:04.206Z,80.75
2023-02-26T03:28:03.217Z,80.81
2023-02-26T03:30:45.129Z,80.16
2023-02-26T03:33:38.696Z,79.05
2023-02-26T03:36:24.623Z,78.49
2023-02-26T03:39:27.989Z,78.50
2023-02-26T03:42:02.528Z,78.19
2023-02-26T03:44:49.531Z,78.16
2023-02-26T03:47:17.127Z,77.72
2023-02-26T03:50:09.592Z,75.84
2023-02-26T03:52:50.777Z,76.19
2023-02-26T03:55:33.068Z,76.43
2023-02-26T03:58:13.611Z,76.32
2023-02-26T04:00:57.206Z,75.41
2023-02-26T04:03:32.673Z,74.88
2023-02-26T04:06:02.525Z,76.02
2023-02-26T04:08:31.664Z,76.21
2023-02-26T04:11:17.219Z,76.98
2023-02-26T04:13:45.260Z,77.79
2023-02-26T04:16:13.780Z,77.41
2023-02-26T04:18:42.540Z,77.96
2023-02-26T04:21:14.942Z,77.96
2023-02-26T04:23:43.345Z,78.71
2023-02-26T04:26:12.365Z,78.76
2023-02-26T04:28:41.691Z,79.14
2023-02-26T04:31:10.536Z,79.64
2023-02-26T04:33:39.163Z,79.93
2023-02-26T04:36:06.937Z,79.95
2023-02-26T04:38:34.631Z,81.04
2023-02-26T04:41:02.333Z,80.94
2023-02-26T04:43:29.729Z,81.38
2023-02-26T04:46:12.584Z,81.64
2023-02-26T04:48:40.489Z,81.79
2023-02-26T04:51:07.931Z,82.73
2023-02-26T04:53:35.419Z,83.40
2023-02-26T04:56:02.718Z,83.35
2023-02-26T04:58:30.159Z,83.22
2023-02-26T05:01:04.304Z,83.58
2023-02-26T05:03:32.229Z,83.10
2023-02-26T05:05:59.544Z,84.20
2023-02-26T05:08:29.690Z,84.62
2023-02-26T05:10:56.978Z,84.26
2023-02-26T05:13:24.482Z,84.70
2023-02-26T05:15:54.177Z,85.04
2023-02-26T05:18:21.579Z,86.02
2023-02-26T05:20:53.776Z,86.68
2023-02-26T05:23:21.608Z,86.38
2023-02-26T05:25:49.038Z,85.78
2023-02-26T05:28:17.433Z,86.33
2023-02-26T05:30:45.238Z,87.47
2023-02-26T05:33:12.779Z,86.29
2023-02-26T05:35:40.089Z,86.24
2023-02-26T05:38:07.452Z,86.43
2023-02-26T05:40:34.884Z,86.22
2023-02-26T05:43:02.217Z,86.96
2023-02-26T05:45:29.484Z,86.45
2023-02-26T05:47:56.901Z,86.13
2023-02-26T05:50:24.179Z,86.50
2023-02-26T05:52:51.484Z,86.47
2023-02-26T05:55:19.271Z,86.88
2023-02-26T05:57:46.593Z,86.57
2023-02-26T06:00:14.671Z,85.97
2023-02-26T06:02:42.434Z,86.33
2023-02-26T06:05:10.159Z,85.72
2023-02-26T06:07:37.488Z,85.61
2023-02-26T06:10:05.597Z,85.13
2023-02-26T06:12:32.868Z,84.99
2023-02-26T06:15:00.317Z,84.21
2023-02-26T06:17:27.808Z,84.19
2023-02-26T06:19:55.044Z,83.84
2023-02-26T06:22:22.406Z,84.40
2023-02-26T06:24:49.994Z,83.66
2023-02-26T06:27:17.520Z,83.33
2023-02-26T06:29:44.733Z,82.87
2023-02-26T06:32:12.063Z,82.79
2023-02-26T06:34:39.434Z,83.56
2023-02-26T06:37:06.851Z,83.65
2023-02-26T06:39:34.098Z,84.52
2023-02-26T06:42:01.405Z,84.02
2023-02-26T06:44:28.729Z,84.24
2023-02-26T06:46:58.810Z,83.00
2023-02-26T06:49:26.137Z,82.21
2023-02-26T06:51:53.467Z,83.25
2023-02-26T06:54:20.886Z,83.90
2023-02-26T06:56:48.441Z,84.22
2023-02-26T06:59:15.814Z,84.38
2023-02-26T07:01:43.190Z,84.36
2023-02-26T07:04:13.558Z,85.28
2023-02-26T07:06:41.109Z,85.28
2023-02-26T07:09:10.676Z,84.44
2023-02-26T07:11:38.001Z,84.70
2023-02-26T07:14:05.371Z,86.45
2023-02-26T07:16:32.958Z,86.93
2023-02-26T07:19:00.232Z,87.79
2023-02-26T07:21:27.621Z,89.56
2023-02-26T07:23:54.896Z,88.76
2023-02-26T07:26:22.249Z,88.90
2023-02-26T07:28:49.568Z,88.90
2023-02-26T07:31:17.227Z,88.33
2023-02-26T07:33:44.626Z,87.37
2023-02-26T07:36:11.988Z,85.89
2023-02-26T07:38:39.380Z,86.88
2023-02-26T07:41:06.763Z,85.07
2023-02-26T07:43:34.069Z,84.04
2023-02-26T07:46:01.670Z,81.94
2023-02-26T07:48:29.008Z,81.32
2023-02-26T07:50:56.924Z,80.38
2023-02-26T07:53:24.258Z,79.91
2023-02-26T07:55:51.753Z,79.26
2023-02-26T07:58:19.534Z,78.17
2023-02-26T08:00:47.351Z,77.84
2023-02-26T08:03:15.573Z,76.55
2023-02-26T08:05:43.792Z,75.05
2023-02-26T08:08:11.220Z,73.56
2023-02-26T08:10:41.911Z,74.41
2023-02-26T08:13:09.647Z,71.33
2023-02-26T08:15:36.980Z,71.24
2023-02-26T08:18:04.586Z,68.97
2023-02-26T08:20:31.985Z,67.68
2023-02-26T08:22:59.264Z,68.16
2023-02-26T08:25:26.772Z,69.11
2023-02-26T08:27:57.846Z,67.94
2023-02-26T08:30:25.302Z,66.52
2023-02-26T08:32:52.629Z,65.94
2023-02-26T08:35:19.974Z,65.29
2023-02-26T08:37:50.111Z,65.88
2023-02-26T08:40:17.619Z,65.31
2023-02-26T08:42:44.960Z,63.75
2023-02-26T08:45:12.982Z,62.27
2023-02-26T08:47:55.838Z,62.66
2023-02-26T08:50:25.707Z,61.91
2023-02-26T08:52:53.038Z,62.48
2023-02-26T08:55:20.680Z,61.47
2023-02-26T08:57:47.936Z,60.57
2023-02-26T09:00:19.362Z,60.05
2023-02-26T09:02:47.544Z,60.01
2023-02-26T09:05:16.126Z,59.14
2023-02-26T09:07:44.466Z,58.53
2023-02-26T09:10:15.309Z,57.59
2023-02-26T09:12:43.136Z,57.37
2023-02-26T09:15:12.461Z,57.93
2023-02-26T09:17:40.700Z,58.77
2023-02-26T09:20:09.246Z,57.98
2023-02-26T09:22:37.301Z,57.04
2023-02-26T09:25:05.358Z,56.61
2023-02-26T09:27:33.709Z,56.39
2023-02-26T09:30:01.399Z,56.40
2023-02-26T09:32:28.965Z,57.33
2023-02-26T09:34:56.368Z,57.26
2023-02-26T09:37:23.759Z,56.56
2023-02-26T09:39:53.288Z,56.33
2023-02-26T09:42:38.491Z,55.13
2023-02-26T09:45:12.454Z,54.81
2023-02-26T09:47:46.767Z,54.99
2023-02-26T09:50:32.059Z,54.78
2023-02-26T09:53:17.088Z,54.89
2023-02-26T09:55:50.259Z,55.34
2023-02-26T09:58:30.725Z,54.66
2023-02-26T10:01:11.372Z,54.64
2023-02-26T10:03:56.962Z,54.63
2023-02-26T10:06:31.938Z,53.87
2023-02-26T10:09:24.581Z,53.61
2023-02-26T10:12:02.291Z,53.13
2023-02-26T10:14:35.883Z,53.11
2023-02-26T10:17:14.635Z,52.24
2023-02-26T10:19:51.597Z,51.94
2023-02-26T10:23:02.969Z,51.29
2023-02-26T10:25:42.571Z,51.48
2023-02-26T10:28:31.343Z,51.50
2023-02-26T10:31:05.897Z,49.46
2023-02-26T10:33:47.757Z,48.61
2023-02-26T10:36:40.642Z,49.82
2023-02-26T10:39:22.370Z,49.07
2023-02-26T10:41:51.373Z,49.50
2023-02-26T10:44:26.689Z,49.45
2023-02-26T10:47:09.228Z,48.99
2023-02-26T10:50:05.739Z,49.50
2023-02-26T10:52:38.198Z,48.33
2023-02-26T10:55:26.746Z,47.52
2023-02-26T10:58:03.319Z,48.85
2023-02-26T11:00:30.692Z,48.34
2023-02-26T11:02:58.536Z,48.18
2023-02-26T11:05:29.361Z,47.10
2023-02-26T11:08:01.546Z,47.39
2023-02-26T11:10:40.287Z,46.75
2023-02-26T11:13:08.706Z,45.72
2023-02-26T11:15:36.441Z,46.38
2023-02-26T11:18:04.473Z,45.58
2023-02-26T11:20:38.638Z,44.97
2023-02-26T11:23:14.610Z,44.82
2023-02-26T11:25:42.964Z,44.45
2023-02-26T11:28:30.170Z,44.77
2023-02-26T11:31:01.417Z,44.14
2023-02-26T11:33:36.767Z,43.47
2023-02-26T11:36:11.324Z,44.34
2023-02-26T11:38:40.747Z,44.77
2023-02-26T11:41:09.155Z,44.00
2023-02-26T11:43:44.403Z,44.43
2023-02-26T11:46:13.373Z,44.08
2023-02-26T11:48:45.264Z,44.78
2023-02-26T11:51:16.796Z,43.81
2023-02-26T11:53:54.294Z,42.94
2023-02-26T11:56:42.031Z,43.10
2023-02-26T11:59:22.890Z,42.31
2023-02-26T12:01:52.171Z,42.72
2023-02-26T12:04:27.586Z,42.99
2023-02-26T12:06:56.129Z,42.72
2023-02-26T12:09:25.469Z,42.95
2023-02-26T12:12:17.970Z,43.75
2023-02-26T12:15:13.960Z,43.31
2023-02-26T12:18:05.978Z,41.83
2023-02-26T12:20:54.818Z,41.21
2023-02-26T12:23:31.296Z,42.47
2023-02-26T12:26:21.784Z,41.90
2023-02-26T12:28:57.694Z,41.47
2023-02-26T12:31:43.581Z,41.86
2023-02-26T12:34:33.508Z,42.82
2023-02-26T12:37:17.619Z,42.84
2023-02-26T12:39:53.278Z,42.59
2023-02-26T12:42:40.220Z,41.98
2023-02-26T12:45:10.950Z,42.15
2023-02-26T12:48:02.921Z,42.40
2023-02-26T12:50:51.505Z,42.93
2023-02-26T12:53:43.681Z,42.52
2023-02-26T12:56:20.149Z,42.51
2023-02-26T12:58:53.292Z,42.67
2023-02-26T13:01:41.801Z,42.80
2023-02-26T13:04:16.747Z,42.68
2023-02-26T13:06:55.403Z,42.87
2023-02-26T13:10:00.336Z,43.31
2023-02-26T13:13:00.145Z,43.92
2023-02-26T13:15:50.138Z,44.04
2023-02-26T13:18:48.833Z,44.07
2023-02-26T13:21:19.694Z,44.06
2023-02-26T13:23:57.668Z,44.62
2023-02-26T13:26:26.802Z,43.90
2023-02-26T13:29:06.368Z,44.16
2023-02-26T13:31:59.140Z,44.18
2023-02-26T13:34:39.605Z,43.90
2023-02-26T13:37:18.524Z,43.51
2023-02-26T13:39:56.844Z,43.79
2023-02-26T13:43:05.351Z,44.00
2023-02-26T13:46:00.197Z,44.07
2023-02-26T13:48:39.848Z,44.41
2023-02-26T13:51:27.857Z,44.04
2023-02-26T13:54:04.463Z,44.01
2023-02-26T13:56:31.780Z,44.47
2023-02-26T13:59:16.407Z,44.43
2023-02-26T14:01:46.612Z,43.72
2023-02-26T14:04:20.089Z,43.70
2023-02-26T14:06:48.719Z,43.48
2023-02-26T14:09:21.714Z,43.84
2023-02-26T14:11:54.991Z,43.94
2023-02-26T14:14:22.256Z,43.95
2023-02-26T14:16:55.224Z,43.00
2023-02-26T14:19:33.252Z,43.44
2023-02-26T14:22:09.420Z,43.54
2023-02-26T14:24:44.592Z,43.81
2023-02-26T14:27:12.143Z,43.67
2023-02-26T14:29:53.424Z,44.33
2023-02-26T14:32:34.025Z,44.27
2023-02-26T14:35:16.137Z,44.85
2023-02-26T14:37:43.750Z,44.24
2023-02-26T14:40:14.464Z,44.59
2023-02-26T14:42:48.420Z,44.79
2023-02-26T14:45:39.028Z,44.58
2023-02-26T14:48:12.911Z,44.36
2023-02-26T14:50:43.231Z,44.10
2023-02-26T14:53:10.687Z,43.95
2023-02-26T14:56:02.802Z,44.29
2023-02-26T14:58:45.200Z,44.41
2023-02-26T15:01:32.106Z,45.33
2023-02-26T15:04:28.826Z,45.58
2023-02-26T15:07:21.173Z,46.16
2023-02-26T15:09:48.438Z,45.95
2023-02-26T15:12:27.012Z,45.27
2023-02-26T15:15:09.981Z,46.14
2023-02-26T15:18:07.832Z,45.99
2023-02-26T15:21:22.812Z,46.95
2023-02-26T15:23:55.855Z,47.33
2023-02-26T15:26:37.712Z,47.48
2023-02-26T15:29:10.137Z,47.16
2023-02-26T15:31:53.631Z,47.33
2023-02-26T15:34:22.047Z,47.39
2023-02-26T15:36:53.390Z,46.93
2023-02-26T15:39:23.755Z,45.88
2023-02-26T15:41:53.967Z,46.49
2023-02-26T15:44:30.629Z,46.61
2023-02-26T15:47:02.104Z,46.72
2023-02-26T15:49:36.081Z,46.84
2023-02-26T15:52:05.249Z,46.55
2023-02-26T15:54:57.887Z,45.64
2023-02-26T15:57:30.109Z,45.58
2023-02-26T16:00:10.512Z,45.92
2023-02-26T16:02:41.153Z,45.00
2023-02-26T16:05:10.944Z,44.94
2023-02-26T16:07:40.552Z,44.85
2023-02-26T16:10:16.961Z,45.21
2023-02-26T16:12:49.257Z,45.37
2023-02-26T16:15:26.309Z,45.56
2023-02-26T16:17:55.655Z,46.00
2023-02-26T16:20:27.271Z,45.39
2023-02-26T16:22:56.559Z,47.04
2023-02-26T16:25:38.310Z,48.59
2023-02-26T16:28:12.737Z,49.31
2023-02-26T16:30:43.910Z,50.91
2023-02-26T16:33:17.377Z,51.45
2023-02-26T16:35:52.974Z,51.62
2023-02-26T16:38:22.002Z,51.38
2023-02-26T16:40:58.879Z,52.06
2023-02-26T16:43:42.182Z,52.62
2023-02-26T16:46:15.207Z,52.33
2023-02-26T16:48:48.198Z,53.01
2023-02-26T16:51:21.054Z,53.46
2023-02-26T16:53:49.745Z,53.71
2023-02-26T16:56:20.504Z,53.71
2023-02-26T16:58:56.106Z,53.29
2023-02-26T17:01:24.177Z,53.49
2023-02-26T17:04:00.484Z,53.75
2023-02-26T17:06:31.262Z,53.59
2023-02-26T17:09:00.847Z,53.04
2023-02-26T17:11:33.088Z,53.51
2023-02-26T17:14:25.383Z,53.22
2023-02-26T17:16:53.522Z,53.53
2023-02-26T17:19:20.882Z,53.35
2023-02-26T17:21:54.135Z,53.35
2023-02-26T17:24:29.631Z,52.83
2023-02-26T17:26:59.805Z,51.53
2023-02-26T17:29:34.081Z,52.17
2023-02-26T17:32:01.440Z,52.15
2023-02-26T17:34:28.878Z,52.20
2023-02-26T17:36:57.137Z,52.02
2023-02-26T17:39:29.133Z,52.13
2023-02-26T17:41:56.534Z,51.85
2023-02-26T17:44:25.623Z,51.43
2023-02-26T17:46:53.863Z,52.00
2023-02-26T17:49:21.192Z,52.05
2023-02-26T17:51:48.724Z,51.79
2023-02-26T17:54:16.041Z,52.52
2023-02-26T17:56:45.062Z,52.34
2023-02-26T17:59:14.354Z,53.05
2023-02-26T18:01:41.920Z,53.00
2023-02-26T18:04:09.563Z,52.97
2023-02-26T18:06:37.709Z,53.48
2023-02-26T18:09:06.094Z,53.82
2023-02-26T18:11:33.911Z,53.25
2023-02-26T18:14:01.312Z,52.73
2023-02-26T18:16:35.971Z,52.53
2023-02-26T18:19:04.256Z,53.02
2023-02-26T18:21:32.692Z,51.61
2023-02-26T18:24:01.157Z,51.42
2023-02-26T18:26:33.351Z,50.54
2023-02-26T18:29:00.692Z,51.12
2023-02-26T18:31:34.663Z,52.16
2023-02-26T18:34:03.328Z,51.53
2023-02-26T18:36:37.954Z,51.46
2023-02-26T18:39:08.127Z,50.70
2023-02-26T18:41:35.594Z,51.29
2023-02-26T18:44:05.836Z,51.47
2023-02-26T18:46:35.009Z,52.31
2023-02-26T18:49:02.294Z,50.28
2023-02-26T18:51:30.262Z,50.61
2023-02-26T18:53:57.569Z,50.44
2023-02-26T18:56:24.928Z,49.43
2023-02-26T18:58:52.344Z,49.19
2023-02-26T19:01:20.008Z,48.51
2023-02-26T19:03:47.297Z,47.14
2023-02-26T19:06:14.709Z,47.87
2023-02-26T19:08:44.549Z,47.49
2023-02-26T19:11:11.934Z,47.69
2023-02-26T19:13:39.357Z,48.32
2023-02-26T19:16:07.072Z,48.13
2023-02-26T19:18:34.380Z,47.55
2023-02-26T19:21:02.527Z,47.42
2023-02-26T19:23:29.747Z,47.30
2023-02-26T19:25:57.067Z,46.72
2023-02-26T19:28:24.456Z,47.18
2023-02-26T19:30:54.751Z,47.26
2023-02-26T19:33:22.183Z,47.24
2023-02-26T19:35:49.553Z,47.44
2023-02-26T19:38:17.050Z,46.67
2023-02-26T19:40:46.859Z,46.86
2023-02-26T19:43:14.238Z,46.70
2023-02-26T19:45:41.882Z,46.92
2023-02-26T19:48:09.250Z,47.07
2023-02-26T19:50:36.704Z,46.86
2023-02-26T19:53:04.183Z,46.79
2023-02-26T19:55:31.566Z,46.59
2023-02-26T19:58:01.758Z,47.32
2023-02-26T20:00:29.141Z,46.13
2023-02-26T20:02:56.558Z,46.42
2023-02-26T20:05:23.982Z,46.46
2023-02-26T20:07:51.626Z,46.43
2023-02-26T20:10:19.219Z,47.13
2023-02-26T20:12:46.981Z,46.71
2023-02-26T20:15:14.841Z,45.81
2023-02-26T20:17:42.272Z,45.82
2023-02-26T20:20:10.344Z,46.51
2023-02-26T20:22:37.749Z,44.95
2023-02-26T20:25:09.154Z,45.76
2023-02-26T20:27:38.987Z,45.24
2023-02-26T20:30:09.119Z,45.80
2023-02-26T20:32:37.196Z,45.37
2023-02-26T20:35:05.723Z,45.34
2023-02-26T20:37:33.244Z,45.38
2023-02-26T20:40:00.697Z,45.07
2023-02-26T20:42:28.084Z,45.31
2023-02-26T20:44:55.791Z,45.73
2023-02-26T20:47:23.337Z,45.49
2023-02-26T20:49:50.734Z,45.10
2023-02-26T20:52:18.662Z,44.64
2023-02-26T20:54:46.052Z,44.32
2023-02-26T20:57:15.796Z,45.64
2023-02-26T20:59:43.178Z,45.30
2023-02-26T21:02:13.101Z,45.03
2023-02-26T21:04:40.480Z,46.20
2023-02-26T21:07:21.545Z,46.20
2023-02-26T21:09:50.281Z,45.92
2023-02-26T21:12:18.372Z,45.92
2023-02-26T21:14:51.371Z,45.64
2023-02-26T21:17:20.912Z,46.16
2023-02-26T21:19:48.795Z,45.98
2023-02-26T21:22:16.923Z,45.92
2023-02-26T21:24:44.497Z,45.98
2023-02-26T21:27:12.666Z,46.89
2023-02-26T21:29:40.012Z,45.80
2023-02-26T21:32:08.007Z,46.96
2023-02-26T21:34:35.808Z,46.50
2023-02-26T21:37:05.110Z,46.15
2023-02-26T21:39:33.338Z,46.06
2023-02-26T21:42:03.646Z,46.75
2023-02-26T21:44:33.503Z,46.00
2023-02-26T21:47:02.372Z,45.75
2023-02-26T21:49:31.944Z,46.14
2023-02-26T21:52:00.387Z,45.94
2023-02-26T21:54:28.198Z,46.92
2023-02-26T21:56:55.664Z,46.37
2023-02-26T21:59:24.647Z,46.83
2023-02-26T22:01:52.318Z,46.74
2023-02-26T22:04:20.235Z,46.99
2023-02-26T22:06:47.733Z,46.60
2023-02-26T22:09:15.063Z,46.98
2023-02-26T22:11:42.291Z,47.20
2023-02-26T22:14:09.690Z,47.28
2023-02-26T22:16:37.121Z,47.83
2023-02-26T22:19:07.457Z,47.95
2023-02-26T22:21:34.879Z,47.42
2023-02-26T22:24:03.727Z,47.38
2023-02-26T22:26:31.443Z,47.48
2023-02-26T22:29:00.663Z,47.84
2023-02-26T22:31:29.261Z,46.96
2023-02-26T22:33:57.441Z,47.21
2023-02-26T22:36:25.268Z,46.95
2023-02-26T22:38:53.724Z,46.42
2023-02-26T22:41:21.017Z,47.03
2023-02-26T22:43:48.739Z,46.76
2023-02-26T22:46:17.183Z,47.05
2023-02-26T22:48:44.759Z,47.23
2023-02-26T22:51:12.187Z,47.18
2023-02-26T22:53:39.474Z,47.37
2023-02-26T22:56:06.913Z,47.04
2023-02-26T22:58:34.388Z,47.25
2023-02-26T23:01:05.076Z,47.38
2023-02-26T23:03:33.142Z,47.71
2023-02-26T23:06:01.567Z,47.28
2023-02-26T23:08:28.895Z,47.14
2023-02-26T23:10:58.275Z,46.63
2023-02-26T23:13:27.252Z,47.00
2023-02-26T23:15:54.714Z,46.48
2023-02-26T23:18:22.088Z,46.84
2023-02-26T23:20:49.965Z,47.71
2023-02-26T23:23:17.500Z,47.90
2023-02-26T23:25:45.169Z,47.54
2023-02-26T23:28:13.113Z,48.35
2023-02-26T23:30:40.784Z,47.93
2023-02-26T23:33:08.288Z,48.33
2023-02-26T23:35:36.078Z,48.09
2023-02-26T23:38:04.797Z,47.84
2023-02-26T23:40:33.085Z,47.92
2023-02-26T23:43:00.563Z,47.94
2023-02-26T23:45:27.863Z,49.06
2023-02-26T23:47:55.279Z,48.37
2023-02-26T23:50:23.357Z,48.16
2023-02-26T23:52:50.769Z,48.35
2023-02-26T23:55:21.523Z,48.16
2023-02-26T23:57:48.924Z,48.15
